sensor_id;sensor_type;location;lat;lon;timestamp;P1;durP1;ratioP1;P2;durP2;ratioP2
14770;SDS011;7477;45.222;5.688;2023-04-08T00:02:26;1.58;;;1.48;;
14770;SDS011;7477;45.222;5.688;2023-04-08T00:05:46;2.20;;;1.67;;
14770;SDS011;7477;45.222;5.688;2023-04-08T00:09:06;2.17;;;1.85;;
14770;SDS011;7477;45.222;5.688;2023-04-08T00:12:25;2.97;;;1.90;;
14770;SDS011;7477;45.222;5.688;2023-04-08T00:15:44;4.82;;;2.13;;
14770;SDS011;7477;45.222;5.688;2023-04-08T00:19:04;2.40;;;1.70;;
14770;SDS011;7477;45.222;5.688;2023-04-08T00:22:24;2.47;;;1.60;;
14770;SDS011;7477;45.222;5.688;2023-04-08T00:25:43;3.55;;;2.13;;
14770;SDS011;7477;45.222;5.688;2023-04-08T00:29:03;2.13;;;1.70;;
14770;SDS011;7477;45.222;5.688;2023-04-08T00:32:22;6.25;;;2.15;;
14770;SDS011;7477;45.222;5.688;2023-04-08T00:35:42;3.33;;;2.42;;
14770;SDS011;7477;45.222;5.688;2023-04-08T00:39:01;2.53;;;2.13;;
14770;SDS011;7477;45.222;5.688;2023-04-08T00:42:22;3.63;;;2.35;;
14770;SDS011;7477;45.222;5.688;2023-04-08T00:45:41;4.18;;;2.70;;
14770;SDS011;7477;45.222;5.688;2023-04-08T00:49:00;3.25;;;2.20;;
14770;SDS011;7477;45.222;5.688;2023-04-08T00:52:20;3.85;;;2.00;;
14770;SDS011;7477;45.222;5.688;2023-04-08T00:55:39;3.15;;;2.13;;
14770;SDS011;7477;45.222;5.688;2023-04-08T00:58:59;3.80;;;1.90;;
14770;SDS011;7477;45.222;5.688;2023-04-08T01:02:29;5.50;;;1.65;;
14770;SDS011;7477;45.222;5.688;2023-04-08T01:09:51;1.23;;;1.13;;
14770;SDS011;7477;45.222;5.688;2023-04-08T01:13:13;2.10;;;1.30;;
14770;SDS011;7477;45.222;5.688;2023-04-08T01:16:37;1.75;;;1.38;;
14770;SDS011;7477;45.222;5.688;2023-04-08T01:19:59;1.95;;;1.40;;
14770;SDS011;7477;45.222;5.688;2023-04-08T01:23:22;1.38;;;1.20;;
14770;SDS011;7477;45.222;5.688;2023-04-08T01:27:02;1.75;;;1.60;;
14770;SDS011;7477;45.222;5.688;2023-04-08T01:30:23;1.95;;;1.55;;
14770;SDS011;7477;45.222;5.688;2023-04-08T01:33:44;2.55;;;1.67;;
14770;SDS011;7477;45.222;5.688;2023-04-08T01:37:05;3.53;;;1.80;;
14770;SDS011;7477;45.222;5.688;2023-04-08T01:40:25;2.55;;;1.73;;
14770;SDS011;7477;45.222;5.688;2023-04-08T01:43:45;2.83;;;1.90;;
14770;SDS011;7477;45.222;5.688;2023-04-08T01:47:06;2.35;;;1.85;;
14770;SDS011;7477;45.222;5.688;2023-04-08T01:50:26;3.00;;;2.00;;
14770;SDS011;7477;45.222;5.688;2023-04-08T01:53:47;2.72;;;1.85;;
14770;SDS011;7477;45.222;5.688;2023-04-08T01:57:07;3.28;;;2.20;;
14770;SDS011;7477;45.222;5.688;2023-04-08T02:00:29;3.45;;;2.38;;
14770;SDS011;7477;45.222;5.688;2023-04-08T02:03:49;4.15;;;2.13;;
14770;SDS011;7477;45.222;5.688;2023-04-08T02:07:10;2.72;;;2.13;;
14770;SDS011;7477;45.222;5.688;2023-04-08T02:10:30;3.50;;;2.20;;
14770;SDS011;7477;45.222;5.688;2023-04-08T02:13:49;2.42;;;2.03;;
14770;SDS011;7477;45.222;5.688;2023-04-08T02:17:11;2.25;;;1.75;;
14770;SDS011;7477;45.222;5.688;2023-04-08T02:20:35;5.07;;;2.30;;
14770;SDS011;7477;45.222;5.688;2023-04-08T02:23:57;2.78;;;2.30;;
14770;SDS011;7477;45.222;5.688;2023-04-08T02:27:17;4.00;;;2.17;;
14770;SDS011;7477;45.222;5.688;2023-04-08T02:30:40;4.15;;;2.28;;
14770;SDS011;7477;45.222;5.688;2023-04-08T02:34:02;4.30;;;2.40;;
14770;SDS011;7477;45.222;5.688;2023-04-08T02:37:24;2.92;;;2.38;;
14770;SDS011;7477;45.222;5.688;2023-04-08T02:40:43;3.30;;;2.10;;
14770;SDS011;7477;45.222;5.688;2023-04-08T02:44:03;4.07;;;2.53;;
14770;SDS011;7477;45.222;5.688;2023-04-08T02:47:22;4.07;;;2.00;;
14770;SDS011;7477;45.222;5.688;2023-04-08T02:50:41;2.15;;;1.95;;
14770;SDS011;7477;45.222;5.688;2023-04-08T02:54:01;2.20;;;1.80;;
14770;SDS011;7477;45.222;5.688;2023-04-08T02:57:20;3.78;;;2.17;;
14770;SDS011;7477;45.222;5.688;2023-04-08T03:00:39;4.90;;;2.05;;
14770;SDS011;7477;45.222;5.688;2023-04-08T03:03:59;2.78;;;1.98;;
14770;SDS011;7477;45.222;5.688;2023-04-08T03:07:18;4.25;;;2.10;;
14770;SDS011;7477;45.222;5.688;2023-04-08T03:10:38;3.90;;;2.20;;
14770;SDS011;7477;45.222;5.688;2023-04-08T03:13:58;6.38;;;2.03;;
14770;SDS011;7477;45.222;5.688;2023-04-08T03:17:17;2.03;;;1.60;;
14770;SDS011;7477;45.222;5.688;2023-04-08T03:20:36;2.65;;;2.08;;
14770;SDS011;7477;45.222;5.688;2023-04-08T03:23:56;2.03;;;1.83;;
14770;SDS011;7477;45.222;5.688;2023-04-08T03:27:15;3.55;;;2.17;;
14770;SDS011;7477;45.222;5.688;2023-04-08T03:30:34;1.85;;;1.70;;
14770;SDS011;7477;45.222;5.688;2023-04-08T03:33:54;2.95;;;2.00;;
14770;SDS011;7477;45.222;5.688;2023-04-08T03:37:14;2.90;;;2.00;;
14770;SDS011;7477;45.222;5.688;2023-04-08T03:40:33;2.53;;;1.90;;
14770;SDS011;7477;45.222;5.688;2023-04-08T03:43:52;3.10;;;2.13;;
14770;SDS011;7477;45.222;5.688;2023-04-08T03:47:11;2.78;;;2.20;;
14770;SDS011;7477;45.222;5.688;2023-04-08T03:50:30;2.53;;;1.90;;
14770;SDS011;7477;45.222;5.688;2023-04-08T03:53:49;3.95;;;1.75;;
14770;SDS011;7477;45.222;5.688;2023-04-08T03:57:08;3.08;;;2.20;;
14770;SDS011;7477;45.222;5.688;2023-04-08T04:00:29;4.22;;;1.90;;
14770;SDS011;7477;45.222;5.688;2023-04-08T04:03:49;2.38;;;1.80;;
14770;SDS011;7477;45.222;5.688;2023-04-08T04:07:08;2.05;;;1.85;;
14770;SDS011;7477;45.222;5.688;2023-04-08T04:10:28;4.20;;;1.52;;
14770;SDS011;7477;45.222;5.688;2023-04-08T04:13:47;3.40;;;1.77;;
14770;SDS011;7477;45.222;5.688;2023-04-08T04:17:06;6.05;;;1.50;;
14770;SDS011;7477;45.222;5.688;2023-04-08T04:20:25;2.28;;;1.50;;
14770;SDS011;7477;45.222;5.688;2023-04-08T04:23:46;2.35;;;1.90;;
14770;SDS011;7477;45.222;5.688;2023-04-08T04:27:06;2.20;;;1.70;;
14770;SDS011;7477;45.222;5.688;2023-04-08T04:30:25;2.07;;;1.83;;
14770;SDS011;7477;45.222;5.688;2023-04-08T04:33:45;5.68;;;1.70;;
14770;SDS011;7477;45.222;5.688;2023-04-08T04:37:05;4.25;;;2.20;;
14770;SDS011;7477;45.222;5.688;2023-04-08T04:40:24;4.33;;;2.40;;
14770;SDS011;7477;45.222;5.688;2023-04-08T04:43:44;4.43;;;2.83;;
14770;SDS011;7477;45.222;5.688;2023-04-08T04:47:03;2.85;;;2.40;;
14770;SDS011;7477;45.222;5.688;2023-04-08T04:50:23;3.28;;;2.20;;
14770;SDS011;7477;45.222;5.688;2023-04-08T04:53:43;3.28;;;2.33;;
14770;SDS011;7477;45.222;5.688;2023-04-08T04:57:02;2.47;;;2.10;;
14770;SDS011;7477;45.222;5.688;2023-04-08T05:00:21;2.10;;;1.90;;
14770;SDS011;7477;45.222;5.688;2023-04-08T05:03:41;4.80;;;1.90;;
14770;SDS011;7477;45.222;5.688;2023-04-08T05:07:00;3.35;;;1.98;;
14770;SDS011;7477;45.222;5.688;2023-04-08T05:10:19;3.55;;;2.42;;
14770;SDS011;7477;45.222;5.688;2023-04-08T05:13:38;2.88;;;2.15;;
14770;SDS011;7477;45.222;5.688;2023-04-08T05:16:57;3.22;;;2.25;;
14770;SDS011;7477;45.222;5.688;2023-04-08T05:20:17;3.53;;;2.47;;
14770;SDS011;7477;45.222;5.688;2023-04-08T05:23:37;4.00;;;2.10;;
14770;SDS011;7477;45.222;5.688;2023-04-08T05:26:56;3.92;;;2.08;;
14770;SDS011;7477;45.222;5.688;2023-04-08T05:30:15;4.37;;;2.50;;
14770;SDS011;7477;45.222;5.688;2023-04-08T05:33:34;5.22;;;2.72;;
14770;SDS011;7477;45.222;5.688;2023-04-08T05:36:54;7.80;;;3.28;;
14770;SDS011;7477;45.222;5.688;2023-04-08T05:40:13;5.60;;;4.07;;
14770;SDS011;7477;45.222;5.688;2023-04-08T05:43:33;8.53;;;4.37;;
14770;SDS011;7477;45.222;5.688;2023-04-08T05:46:52;6.65;;;4.13;;
14770;SDS011;7477;45.222;5.688;2023-04-08T05:50:12;5.80;;;4.57;;
14770;SDS011;7477;45.222;5.688;2023-04-08T05:53:32;7.27;;;4.50;;
14770;SDS011;7477;45.222;5.688;2023-04-08T05:56:51;6.13;;;4.23;;
14770;SDS011;7477;45.222;5.688;2023-04-08T06:00:11;5.53;;;3.53;;
14770;SDS011;7477;45.222;5.688;2023-04-08T06:03:30;6.43;;;3.75;;
14770;SDS011;7477;45.222;5.688;2023-04-08T06:06:49;5.82;;;3.15;;
14770;SDS011;7477;45.222;5.688;2023-04-08T06:10:09;10.10;;;3.23;;
14770;SDS011;7477;45.222;5.688;2023-04-08T06:13:28;12.15;;;5.45;;
14770;SDS011;7477;45.222;5.688;2023-04-08T06:16:48;10.75;;;6.43;;
14770;SDS011;7477;45.222;5.688;2023-04-08T06:20:07;6.10;;;4.30;;
14770;SDS011;7477;45.222;5.688;2023-04-08T06:23:27;6.47;;;3.90;;
14770;SDS011;7477;45.222;5.688;2023-04-08T06:26:46;4.97;;;3.23;;
14770;SDS011;7477;45.222;5.688;2023-04-08T06:30:05;7.13;;;4.00;;
14770;SDS011;7477;45.222;5.688;2023-04-08T06:33:25;5.87;;;3.40;;
14770;SDS011;7477;45.222;5.688;2023-04-08T06:36:44;5.03;;;3.77;;
14770;SDS011;7477;45.222;5.688;2023-04-08T06:40:04;7.07;;;4.53;;
14770;SDS011;7477;45.222;5.688;2023-04-08T06:43:24;6.87;;;4.57;;
14770;SDS011;7477;45.222;5.688;2023-04-08T06:46:43;5.60;;;3.83;;
14770;SDS011;7477;45.222;5.688;2023-04-08T06:50:02;7.03;;;4.40;;
14770;SDS011;7477;45.222;5.688;2023-04-08T06:53:25;8.57;;;4.80;;
14770;SDS011;7477;45.222;5.688;2023-04-08T06:56:47;9.68;;;4.55;;
14770;SDS011;7477;45.222;5.688;2023-04-08T07:00:06;5.20;;;3.27;;
14770;SDS011;7477;45.222;5.688;2023-04-08T07:03:26;5.75;;;3.22;;
14770;SDS011;7477;45.222;5.688;2023-04-08T07:06:46;4.20;;;3.23;;
14770;SDS011;7477;45.222;5.688;2023-04-08T07:10:05;7.53;;;4.32;;
14770;SDS011;7477;45.222;5.688;2023-04-08T07:13:24;5.68;;;3.67;;
14770;SDS011;7477;45.222;5.688;2023-04-08T07:16:43;5.88;;;3.50;;
14770;SDS011;7477;45.222;5.688;2023-04-08T07:20:02;3.88;;;3.20;;
14770;SDS011;7477;45.222;5.688;2023-04-08T07:23:22;6.15;;;4.13;;
14770;SDS011;7477;45.222;5.688;2023-04-08T07:26:41;4.15;;;3.65;;
14770;SDS011;7477;45.222;5.688;2023-04-08T07:30:00;7.85;;;4.75;;
14770;SDS011;7477;45.222;5.688;2023-04-08T07:33:20;6.10;;;3.55;;
14770;SDS011;7477;45.222;5.688;2023-04-08T07:36:41;3.85;;;2.20;;
14770;SDS011;7477;45.222;5.688;2023-04-08T07:40:01;6.18;;;4.35;;
14770;SDS011;7477;45.222;5.688;2023-04-08T07:43:20;7.80;;;4.63;;
14770;SDS011;7477;45.222;5.688;2023-04-08T07:46:39;7.45;;;4.40;;
14770;SDS011;7477;45.222;5.688;2023-04-08T07:49:58;6.38;;;4.70;;
14770;SDS011;7477;45.222;5.688;2023-04-08T07:53:17;6.18;;;4.50;;
14770;SDS011;7477;45.222;5.688;2023-04-08T07:56:37;7.38;;;4.70;;
14770;SDS011;7477;45.222;5.688;2023-04-08T07:59:58;5.55;;;4.53;;
14770;SDS011;7477;45.222;5.688;2023-04-08T08:03:17;5.93;;;4.32;;
14770;SDS011;7477;45.222;5.688;2023-04-08T08:06:36;7.32;;;4.20;;
14770;SDS011;7477;45.222;5.688;2023-04-08T08:09:56;8.98;;;4.97;;
14770;SDS011;7477;45.222;5.688;2023-04-08T08:13:15;7.15;;;4.57;;
14770;SDS011;7477;45.222;5.688;2023-04-08T08:16:39;5.45;;;4.22;;
14770;SDS011;7477;45.222;5.688;2023-04-08T08:19:58;5.18;;;3.83;;
14770;SDS011;7477;45.222;5.688;2023-04-08T08:23:18;6.68;;;4.05;;
14770;SDS011;7477;45.222;5.688;2023-04-08T08:26:37;6.00;;;4.57;;
14770;SDS011;7477;45.222;5.688;2023-04-08T08:29:57;7.70;;;4.28;;
14770;SDS011;7477;45.222;5.688;2023-04-08T08:33:16;9.23;;;4.35;;
14770;SDS011;7477;45.222;5.688;2023-04-08T08:36:35;8.45;;;4.75;;
14770;SDS011;7477;45.222;5.688;2023-04-08T08:39:54;5.03;;;4.25;;
14770;SDS011;7477;45.222;5.688;2023-04-08T08:43:14;4.40;;;3.40;;
14770;SDS011;7477;45.222;5.688;2023-04-08T08:46:33;4.85;;;3.70;;
14770;SDS011;7477;45.222;5.688;2023-04-08T08:49:53;6.45;;;4.15;;
14770;SDS011;7477;45.222;5.688;2023-04-08T08:53:12;5.78;;;3.85;;
14770;SDS011;7477;45.222;5.688;2023-04-08T08:56:34;6.03;;;3.75;;
14770;SDS011;7477;45.222;5.688;2023-04-08T08:59:54;4.45;;;3.40;;
14770;SDS011;7477;45.222;5.688;2023-04-08T09:03:17;4.35;;;3.28;;
14770;SDS011;7477;45.222;5.688;2023-04-08T09:06:37;3.30;;;3.00;;
14770;SDS011;7477;45.222;5.688;2023-04-08T09:09:58;4.80;;;3.63;;
14770;SDS011;7477;45.222;5.688;2023-04-08T09:13:17;9.45;;;4.82;;
14770;SDS011;7477;45.222;5.688;2023-04-08T09:16:40;4.72;;;3.42;;
14770;SDS011;7477;45.222;5.688;2023-04-08T09:20:04;5.30;;;3.70;;
14770;SDS011;7477;45.222;5.688;2023-04-08T09:26:56;4.43;;;3.40;;
14770;SDS011;7477;45.222;5.688;2023-04-08T09:30:15;4.07;;;3.40;;
14770;SDS011;7477;45.222;5.688;2023-04-08T09:33:34;4.72;;;3.28;;
14770;SDS011;7477;45.222;5.688;2023-04-08T09:36:54;5.53;;;4.07;;
14770;SDS011;7477;45.222;5.688;2023-04-08T09:40:14;4.18;;;3.30;;
14770;SDS011;7477;45.222;5.688;2023-04-08T09:43:35;5.97;;;3.47;;
14770;SDS011;7477;45.222;5.688;2023-04-08T09:47:00;6.03;;;3.97;;
14770;SDS011;7477;45.222;5.688;2023-04-08T09:50:30;4.45;;;3.72;;
14770;SDS011;7477;45.222;5.688;2023-04-08T09:53:57;6.05;;;3.55;;
14770;SDS011;7477;45.222;5.688;2023-04-08T09:57:43;7.93;;;4.15;;
14770;SDS011;7477;45.222;5.688;2023-04-08T10:00:59;4.70;;;3.53;;
14770;SDS011;7477;45.222;5.688;2023-04-08T10:04:20;3.95;;;3.30;;
14770;SDS011;7477;45.222;5.688;2023-04-08T10:07:41;5.05;;;3.45;;
14770;SDS011;7477;45.222;5.688;2023-04-08T10:11:01;5.80;;;3.85;;
14770;SDS011;7477;45.222;5.688;2023-04-08T10:14:20;4.65;;;3.97;;
14770;SDS011;7477;45.222;5.688;2023-04-08T10:17:39;4.22;;;3.05;;
14770;SDS011;7477;45.222;5.688;2023-04-08T10:20:58;5.57;;;3.72;;
14770;SDS011;7477;45.222;5.688;2023-04-08T10:24:18;6.18;;;3.15;;
14770;SDS011;7477;45.222;5.688;2023-04-08T10:27:42;5.00;;;3.90;;
14770;SDS011;7477;45.222;5.688;2023-04-08T10:31:03;6.97;;;3.15;;
14770;SDS011;7477;45.222;5.688;2023-04-08T10:34:24;5.45;;;4.10;;
14770;SDS011;7477;45.222;5.688;2023-04-08T10:37:44;4.40;;;3.55;;
14770;SDS011;7477;45.222;5.688;2023-04-08T10:41:04;7.55;;;4.00;;
14770;SDS011;7477;45.222;5.688;2023-04-08T10:44:24;4.15;;;3.10;;
14770;SDS011;7477;45.222;5.688;2023-04-08T10:47:44;3.85;;;3.00;;
14770;SDS011;7477;45.222;5.688;2023-04-08T10:51:03;4.22;;;3.72;;
14770;SDS011;7477;45.222;5.688;2023-04-08T10:54:23;3.72;;;2.90;;
14770;SDS011;7477;45.222;5.688;2023-04-08T10:57:42;5.32;;;2.30;;
14770;SDS011;7477;45.222;5.688;2023-04-08T11:01:05;4.93;;;3.67;;
14770;SDS011;7477;45.222;5.688;2023-04-08T11:04:26;2.80;;;2.15;;
14770;SDS011;7477;45.222;5.688;2023-04-08T11:07:46;2.92;;;2.58;;
14770;SDS011;7477;45.222;5.688;2023-04-08T11:11:05;2.67;;;2.35;;
14770;SDS011;7477;45.222;5.688;2023-04-08T11:14:28;2.58;;;2.20;;
14770;SDS011;7477;45.222;5.688;2023-04-08T11:17:49;3.58;;;2.35;;
14770;SDS011;7477;45.222;5.688;2023-04-08T11:21:09;3.00;;;2.13;;
14770;SDS011;7477;45.222;5.688;2023-04-08T11:24:29;2.78;;;2.00;;
14770;SDS011;7477;45.222;5.688;2023-04-08T11:27:49;2.90;;;2.45;;
14770;SDS011;7477;45.222;5.688;2023-04-08T11:31:09;3.03;;;2.45;;
14770;SDS011;7477;45.222;5.688;2023-04-08T11:34:29;2.47;;;2.08;;
14770;SDS011;7477;45.222;5.688;2023-04-08T11:37:48;3.00;;;2.25;;
14770;SDS011;7477;45.222;5.688;2023-04-08T11:41:10;3.42;;;2.67;;
14770;SDS011;7477;45.222;5.688;2023-04-08T11:44:32;2.67;;;1.92;;
14770;SDS011;7477;45.222;5.688;2023-04-08T11:47:52;3.58;;;2.22;;
14770;SDS011;7477;45.222;5.688;2023-04-08T11:51:11;1.70;;;1.60;;
14770;SDS011;7477;45.222;5.688;2023-04-08T11:54:31;3.50;;;1.95;;
14770;SDS011;7477;45.222;5.688;2023-04-08T11:57:51;2.17;;;1.67;;
14770;SDS011;7477;45.222;5.688;2023-04-08T12:01:11;4.30;;;2.30;;
14770;SDS011;7477;45.222;5.688;2023-04-08T12:04:31;1.70;;;1.60;;
14770;SDS011;7477;45.222;5.688;2023-04-08T12:07:51;3.92;;;2.30;;
14770;SDS011;7477;45.222;5.688;2023-04-08T12:11:10;2.40;;;2.20;;
14770;SDS011;7477;45.222;5.688;2023-04-08T12:14:30;2.28;;;1.90;;
14770;SDS011;7477;45.222;5.688;2023-04-08T12:17:49;3.25;;;1.90;;
14770;SDS011;7477;45.222;5.688;2023-04-08T12:21:08;3.78;;;2.33;;
14770;SDS011;7477;45.222;5.688;2023-04-08T12:24:27;1.55;;;1.45;;
14770;SDS011;7477;45.222;5.688;2023-04-08T12:27:46;1.63;;;1.50;;
14770;SDS011;7477;45.222;5.688;2023-04-08T12:31:05;3.80;;;1.70;;
14770;SDS011;7477;45.222;5.688;2023-04-08T12:34:25;5.15;;;1.70;;
14770;SDS011;7477;45.222;5.688;2023-04-08T12:37:44;2.67;;;1.70;;
14770;SDS011;7477;45.222;5.688;2023-04-08T12:41:04;3.58;;;1.90;;
14770;SDS011;7477;45.222;5.688;2023-04-08T12:44:24;3.00;;;1.80;;
14770;SDS011;7477;45.222;5.688;2023-04-08T12:47:43;4.10;;;2.33;;
14770;SDS011;7477;45.222;5.688;2023-04-08T12:51:03;3.28;;;1.77;;
14770;SDS011;7477;45.222;5.688;2023-04-08T12:54:22;2.45;;;1.55;;
14770;SDS011;7477;45.222;5.688;2023-04-08T12:57:41;1.40;;;1.30;;
14770;SDS011;7477;45.222;5.688;2023-04-08T13:01:00;6.13;;;1.50;;
14770;SDS011;7477;45.222;5.688;2023-04-08T13:04:20;2.25;;;1.70;;
14770;SDS011;7477;45.222;5.688;2023-04-08T13:07:39;2.35;;;1.83;;
14770;SDS011;7477;45.222;5.688;2023-04-08T13:10:59;2.38;;;1.42;;
14770;SDS011;7477;45.222;5.688;2023-04-08T13:14:18;2.63;;;1.90;;
14770;SDS011;7477;45.222;5.688;2023-04-08T13:17:38;4.65;;;1.70;;
14770;SDS011;7477;45.222;5.688;2023-04-08T13:20:57;1.77;;;1.60;;
14770;SDS011;7477;45.222;5.688;2023-04-08T13:24:16;1.67;;;1.50;;
14770;SDS011;7477;45.222;5.688;2023-04-08T13:27:35;4.38;;;1.40;;
14770;SDS011;7477;45.222;5.688;2023-04-08T13:30:54;3.55;;;1.58;;
14770;SDS011;7477;45.222;5.688;2023-04-08T13:34:14;3.08;;;1.63;;
14770;SDS011;7477;45.222;5.688;2023-04-08T13:37:33;5.18;;;2.17;;
14770;SDS011;7477;45.222;5.688;2023-04-08T13:40:53;2.58;;;1.70;;
14770;SDS011;7477;45.222;5.688;2023-04-08T13:44:13;1.85;;;1.60;;
14770;SDS011;7477;45.222;5.688;2023-04-08T13:47:33;1.50;;;1.40;;
14770;SDS011;7477;45.222;5.688;2023-04-08T13:50:52;1.50;;;1.40;;
14770;SDS011;7477;45.222;5.688;2023-04-08T13:54:11;2.72;;;1.67;;
14770;SDS011;7477;45.222;5.688;2023-04-08T13:57:30;2.17;;;1.60;;
14770;SDS011;7477;45.222;5.688;2023-04-08T14:00:49;2.40;;;1.50;;
14770;SDS011;7477;45.222;5.688;2023-04-08T14:04:09;1.55;;;1.45;;
14770;SDS011;7477;45.222;5.688;2023-04-08T14:07:28;1.50;;;1.27;;
14770;SDS011;7477;45.222;5.688;2023-04-08T14:10:47;2.38;;;1.48;;
14770;SDS011;7477;45.222;5.688;2023-04-08T14:14:06;4.03;;;1.30;;
14770;SDS011;7477;45.222;5.688;2023-04-08T14:17:25;1.80;;;1.30;;
14770;SDS011;7477;45.222;5.688;2023-04-08T14:20:44;1.50;;;1.40;;
14770;SDS011;7477;45.222;5.688;2023-04-08T14:24:04;1.48;;;1.38;;
14770;SDS011;7477;45.222;5.688;2023-04-08T14:27:24;1.42;;;1.13;;
14770;SDS011;7477;45.222;5.688;2023-04-08T14:30:44;3.08;;;1.75;;
14770;SDS011;7477;45.222;5.688;2023-04-08T14:34:04;1.30;;;1.20;;
14770;SDS011;7477;45.222;5.688;2023-04-08T14:37:23;1.63;;;1.50;;
14770;SDS011;7477;45.222;5.688;2023-04-08T14:40:43;3.22;;;1.60;;
14770;SDS011;7477;45.222;5.688;2023-04-08T14:44:02;1.65;;;1.55;;
14770;SDS011;7477;45.222;5.688;2023-04-08T14:47:22;1.25;;;1.15;;
14770;SDS011;7477;45.222;5.688;2023-04-08T14:50:41;1.90;;;1.38;;
14770;SDS011;7477;45.222;5.688;2023-04-08T14:54:01;1.75;;;1.35;;
14770;SDS011;7477;45.222;5.688;2023-04-08T14:57:21;1.40;;;1.30;;
14770;SDS011;7477;45.222;5.688;2023-04-08T15:00:40;1.25;;;1.15;;
14770;SDS011;7477;45.222;5.688;2023-04-08T15:04:03;2.33;;;1.45;;
14770;SDS011;7477;45.222;5.688;2023-04-08T15:07:23;1.63;;;1.50;;
14770;SDS011;7477;45.222;5.688;2023-04-08T15:10:43;2.10;;;1.30;;
14770;SDS011;7477;45.222;5.688;2023-04-08T15:14:02;1.55;;;1.42;;
14770;SDS011;7477;45.222;5.688;2023-04-08T15:17:21;1.48;;;1.38;;
14770;SDS011;7477;45.222;5.688;2023-04-08T15:20:40;1.70;;;1.60;;
14770;SDS011;7477;45.222;5.688;2023-04-08T15:24:00;1.75;;;1.48;;
14770;SDS011;7477;45.222;5.688;2023-04-08T15:27:19;3.15;;;1.90;;
14770;SDS011;7477;45.222;5.688;2023-04-08T15:30:39;3.20;;;1.60;;
14770;SDS011;7477;45.222;5.688;2023-04-08T15:33:58;1.98;;;1.40;;
14770;SDS011;7477;45.222;5.688;2023-04-08T15:37:17;2.40;;;1.77;;
14770;SDS011;7477;45.222;5.688;2023-04-08T15:40:36;5.07;;;1.60;;
14770;SDS011;7477;45.222;5.688;2023-04-08T15:43:56;2.10;;;1.52;;
14770;SDS011;7477;45.222;5.688;2023-04-08T15:47:15;3.17;;;1.50;;
14770;SDS011;7477;45.222;5.688;2023-04-08T15:50:35;1.65;;;1.42;;
14770;SDS011;7477;45.222;5.688;2023-04-08T15:53:55;2.03;;;1.45;;
14770;SDS011;7477;45.222;5.688;2023-04-08T15:57:15;3.03;;;1.58;;
14770;SDS011;7477;45.222;5.688;2023-04-08T16:00:34;2.95;;;1.65;;
14770;SDS011;7477;45.222;5.688;2023-04-08T16:03:54;3.10;;;1.58;;
14770;SDS011;7477;45.222;5.688;2023-04-08T16:07:14;2.20;;;1.60;;
14770;SDS011;7477;45.222;5.688;2023-04-08T16:10:34;2.20;;;1.52;;
14770;SDS011;7477;45.222;5.688;2023-04-08T16:13:53;1.50;;;1.40;;
14770;SDS011;7477;45.222;5.688;2023-04-08T16:17:13;1.73;;;1.42;;
14770;SDS011;7477;45.222;5.688;2023-04-08T16:20:35;1.50;;;1.40;;
14770;SDS011;7477;45.222;5.688;2023-04-08T16:23:56;1.60;;;1.33;;
14770;SDS011;7477;45.222;5.688;2023-04-08T16:27:15;1.85;;;1.75;;
14770;SDS011;7477;45.222;5.688;2023-04-08T16:30:35;2.38;;;1.58;;
14770;SDS011;7477;45.222;5.688;2023-04-08T16:33:55;2.17;;;1.65;;
14770;SDS011;7477;45.222;5.688;2023-04-08T16:37:14;1.50;;;1.40;;
14770;SDS011;7477;45.222;5.688;2023-04-08T16:40:33;2.38;;;1.80;;
14770;SDS011;7477;45.222;5.688;2023-04-08T16:43:53;1.55;;;1.42;;
14770;SDS011;7477;45.222;5.688;2023-04-08T16:47:12;3.03;;;2.28;;
14770;SDS011;7477;45.222;5.688;2023-04-08T16:50:31;1.95;;;1.60;;
14770;SDS011;7477;45.222;5.688;2023-04-08T16:53:51;1.77;;;1.60;;
14770;SDS011;7477;45.222;5.688;2023-04-08T16:57:10;1.50;;;1.35;;
14770;SDS011;7477;45.222;5.688;2023-04-08T17:00:29;1.77;;;1.60;;
14770;SDS011;7477;45.222;5.688;2023-04-08T17:03:49;1.95;;;1.77;;
14770;SDS011;7477;45.222;5.688;2023-04-08T17:07:10;2.80;;;2.55;;
14770;SDS011;7477;45.222;5.688;2023-04-08T17:10:29;3.42;;;2.20;;
14770;SDS011;7477;45.222;5.688;2023-04-08T17:13:49;2.65;;;2.30;;
14770;SDS011;7477;45.222;5.688;2023-04-08T17:17:08;3.05;;;2.58;;
14770;SDS011;7477;45.222;5.688;2023-04-08T17:20:28;2.67;;;1.98;;
14770;SDS011;7477;45.222;5.688;2023-04-08T17:23:47;4.47;;;3.47;;
14770;SDS011;7477;45.222;5.688;2023-04-08T17:27:07;2.50;;;2.30;;
14770;SDS011;7477;45.222;5.688;2023-04-08T17:30:26;3.25;;;2.28;;
14770;SDS011;7477;45.222;5.688;2023-04-08T17:33:45;3.28;;;2.33;;
14770;SDS011;7477;45.222;5.688;2023-04-08T17:37:04;2.95;;;2.30;;
14770;SDS011;7477;45.222;5.688;2023-04-08T17:40:24;3.17;;;2.30;;
14770;SDS011;7477;45.222;5.688;2023-04-08T17:43:43;4.82;;;3.55;;
14770;SDS011;7477;45.222;5.688;2023-04-08T17:47:03;4.75;;;3.15;;
14770;SDS011;7477;45.222;5.688;2023-04-08T17:50:22;4.82;;;2.70;;
14770;SDS011;7477;45.222;5.688;2023-04-08T17:53:42;3.10;;;1.92;;
14770;SDS011;7477;45.222;5.688;2023-04-08T17:57:01;3.13;;;2.65;;
14770;SDS011;7477;45.222;5.688;2023-04-08T18:00:21;2.33;;;1.70;;
14770;SDS011;7477;45.222;5.688;2023-04-08T18:03:41;2.42;;;2.10;;
14770;SDS011;7477;45.222;5.688;2023-04-08T18:07:01;1.92;;;1.58;;
14770;SDS011;7477;45.222;5.688;2023-04-08T18:10:22;2.45;;;1.75;;
14770;SDS011;7477;45.222;5.688;2023-04-08T18:13:42;1.75;;;1.65;;
14770;SDS011;7477;45.222;5.688;2023-04-08T18:17:01;1.83;;;1.73;;
14770;SDS011;7477;45.222;5.688;2023-04-08T18:20:21;1.80;;;1.70;;
14770;SDS011;7477;45.222;5.688;2023-04-08T18:23:40;3.30;;;2.50;;
14770;SDS011;7477;45.222;5.688;2023-04-08T18:26:59;2.20;;;1.95;;
14770;SDS011;7477;45.222;5.688;2023-04-08T18:30:20;4.10;;;2.35;;
14770;SDS011;7477;45.222;5.688;2023-04-08T18:33:39;2.22;;;2.03;;
14770;SDS011;7477;45.222;5.688;2023-04-08T18:36:59;3.45;;;2.42;;
14770;SDS011;7477;45.222;5.688;2023-04-08T18:40:18;4.38;;;2.55;;
14770;SDS011;7477;45.222;5.688;2023-04-08T18:43:38;3.15;;;2.85;;
14770;SDS011;7477;45.222;5.688;2023-04-08T18:46:57;3.67;;;3.05;;
14770;SDS011;7477;45.222;5.688;2023-04-08T18:50:16;3.83;;;2.05;;
14770;SDS011;7477;45.222;5.688;2023-04-08T18:53:36;5.40;;;3.63;;
14770;SDS011;7477;45.222;5.688;2023-04-08T18:56:57;4.63;;;2.97;;
14770;SDS011;7477;45.222;5.688;2023-04-08T19:00:16;8.38;;;5.25;;
14770;SDS011;7477;45.222;5.688;2023-04-08T19:03:35;17.77;;;8.93;;
14770;SDS011;7477;45.222;5.688;2023-04-08T19:06:55;3.38;;;3.00;;
14770;SDS011;7477;45.222;5.688;2023-04-08T19:10:14;4.57;;;3.33;;
14770;SDS011;7477;45.222;5.688;2023-04-08T19:13:34;9.45;;;6.00;;
14770;SDS011;7477;45.222;5.688;2023-04-08T19:16:53;6.88;;;4.45;;
14770;SDS011;7477;45.222;5.688;2023-04-08T19:20:13;6.63;;;4.65;;
14770;SDS011;7477;45.222;5.688;2023-04-08T19:23:32;9.35;;;5.47;;
14770;SDS011;7477;45.222;5.688;2023-04-08T19:26:51;10.23;;;5.63;;
14770;SDS011;7477;45.222;5.688;2023-04-08T19:30:11;5.93;;;3.97;;
14770;SDS011;7477;45.222;5.688;2023-04-08T19:33:31;8.13;;;5.00;;
14770;SDS011;7477;45.222;5.688;2023-04-08T19:36:50;7.03;;;4.35;;
14770;SDS011;7477;45.222;5.688;2023-04-08T19:40:10;4.57;;;2.35;;
14770;SDS011;7477;45.222;5.688;2023-04-08T19:43:30;3.33;;;2.63;;
14770;SDS011;7477;45.222;5.688;2023-04-08T19:46:49;5.45;;;2.85;;
14770;SDS011;7477;45.222;5.688;2023-04-08T19:50:09;3.78;;;2.17;;
14770;SDS011;7477;45.222;5.688;2023-04-08T19:53:29;2.08;;;1.85;;
14770;SDS011;7477;45.222;5.688;2023-04-08T19:56:48;2.42;;;2.05;;
14770;SDS011;7477;45.222;5.688;2023-04-08T20:00:08;4.97;;;3.15;;
14770;SDS011;7477;45.222;5.688;2023-04-08T20:03:28;3.70;;;2.53;;
14770;SDS011;7477;45.222;5.688;2023-04-08T20:06:47;3.90;;;3.22;;
14770;SDS011;7477;45.222;5.688;2023-04-08T20:10:06;2.17;;;1.98;;
14770;SDS011;7477;45.222;5.688;2023-04-08T20:13:26;3.58;;;2.25;;
14770;SDS011;7477;45.222;5.688;2023-04-08T20:16:46;1.90;;;1.80;;
14770;SDS011;7477;45.222;5.688;2023-04-08T20:20:06;2.20;;;1.98;;
14770;SDS011;7477;45.222;5.688;2023-04-08T20:23:26;3.70;;;2.47;;
14770;SDS011;7477;45.222;5.688;2023-04-08T20:26:46;2.60;;;2.15;;
14770;SDS011;7477;45.222;5.688;2023-04-08T20:30:06;3.72;;;2.15;;